sensor_id;sensor_type;location;lat;lon;timestamp;temperature;humidity
16823;DHT22;8528;49.976;11.858;2023-07-31T00:00:19;10.50;99.90
16823;DHT22;8528;49.976;11.858;2023-07-31T00:02:47;10.80;99.90
16823;DHT22;8528;49.976;11.858;2023-07-31T00:05:16;11.10;99.90
16823;DHT22;8528;49.976;11.858;2023-07-31T00:07:43;11.40;99.90
16823;DHT22;8528;49.976;11.858;2023-07-31T00:10:10;11.70;99.90
16823;DHT22;8528;49.976;11.858;2023-07-31T00:12:38;11.90;99.90
16823;DHT22;8528;49.976;11.858;2023-07-31T00:15:07;12.20;99.90
16823;DHT22;8528;49.976;11.858;2023-07-31T00:17:36;12.30;99.90
16823;DHT22;8528;49.976;11.858;2023-07-31T00:20:06;12.40;99.90
16823;DHT22;8528;49.976;11.858;2023-07-31T00:22:33;12.50;99.90
16823;DHT22;8528;49.976;11.858;2023-07-31T00:25:00;12.60;99.90
16823;DHT22;8528;49.976;11.858;2023-07-31T00:27:27;12.70;99.90
16823;DHT22;8528;49.976;11.858;2023-07-31T00:29:54;12.70;99.90
16823;DHT22;8528;49.976;11.858;2023-07-31T00:32:23;12.70;99.90
16823;DHT22;8528;49.976;11.858;2023-07-31T00:34:51;12.70;99.90
16823;DHT22;8528;49.976;11.858;2023-07-31T00:37:17;12.70;99.90
16823;DHT22;8528;49.976;11.858;2023-07-31T00:39:44;12.70;99.90
16823;DHT22;8528;49.976;11.858;2023-07-31T00:42:11;12.70;99.90
16823;DHT22;8528;49.976;11.858;2023-07-31T00:44:38;12.70;99.90
16823;DHT22;8528;49.976;11.858;2023-07-31T00:47:05;12.80;99.90
16823;DHT22;8528;49.976;11.858;2023-07-31T00:49:32;12.80;99.90
16823;DHT22;8528;49.976;11.858;2023-07-31T00:52:01;12.90;99.90
16823;DHT22;8528;49.976;11.858;2023-07-31T00:54:29;12.90;99.90
16823;DHT22;8528;49.976;11.858;2023-07-31T00:56:56;13.10;99.90
16823;DHT22;8528;49.976;11.858;2023-07-31T00:59:24;13.10;99.90
16823;DHT22;8528;49.976;11.858;2023-07-31T01:01:51;13.10;99.90
16823;DHT22;8528;49.976;11.858;2023-07-31T01:04:18;13.10;99.90
16823;DHT22;8528;49.976;11.858;2023-07-31T01:07:01;13.10;99.90
16823;DHT22;8528;49.976;11.858;2023-07-31T01:09:52;13.00;99.90
16823;DHT22;8528;49.976;11.858;2023-07-31T01:12:27;13.00;99.90
16823;DHT22;8528;49.976;11.858;2023-07-31T01:15:08;13.00;99.90
16823;DHT22;8528;49.976;11.858;2023-07-31T01:17:44;13.00;99.90
16823;DHT22;8528;49.976;11.858;2023-07-31T01:20:24;13.00;99.90
16823;DHT22;8528;49.976;11.858;2023-07-31T01:23:28;13.00;99.90
16823;DHT22;8528;49.976;11.858;2023-07-31T01:26:41;13.10;99.90
16823;DHT22;8528;49.976;11.858;2023-07-31T01:29:07;13.10;99.90
16823;DHT22;8528;49.976;11.858;2023-07-31T01:31:39;13.20;99.90
16823;DHT22;8528;49.976;11.858;2023-07-31T01:34:09;13.40;99.90
16823;DHT22;8528;49.976;11.858;2023-07-31T01:36:38;13.40;99.90
16823;DHT22;8528;49.976;11.858;2023-07-31T01:39:05;13.40;99.90
16823;DHT22;8528;49.976;11.858;2023-07-31T01:41:32;13.50;99.90
16823;DHT22;8528;49.976;11.858;2023-07-31T01:43:59;13.50;99.90
16823;DHT22;8528;49.976;11.858;2023-07-31T01:46:27;13.50;99.90
16823;DHT22;8528;49.976;11.858;2023-07-31T01:48:55;13.50;99.90
16823;DHT22;8528;49.976;11.858;2023-07-31T01:51:22;13.60;99.90
16823;DHT22;8528;49.976;11.858;2023-07-31T01:53:49;13.50;99.90
16823;DHT22;8528;49.976;11.858;2023-07-31T01:56:16;13.50;99.90
16823;DHT22;8528;49.976;11.858;2023-07-31T01:58:43;13.50;99.90
16823;DHT22;8528;49.976;11.858;2023-07-31T02:01:10;13.50;99.90
16823;DHT22;8528;49.976;11.858;2023-07-31T02:03:40;13.40;99.90
16823;DHT22;8528;49.976;11.858;2023-07-31T02:06:09;13.40;99.90
16823;DHT22;8528;49.976;11.858;2023-07-31T02:08:36;13.40;99.90
16823;DHT22;8528;49.976;11.858;2023-07-31T02:11:03;13.30;99.90
16823;DHT22;8528;49.976;11.858;2023-07-31T02:13:30;13.40;99.90
16823;DHT22;8528;49.976;11.858;2023-07-31T02:15:57;13.40;99.90
16823;DHT22;8528;49.976;11.858;2023-07-31T02:18:24;13.40;99.90
16823;DHT22;8528;49.976;11.858;2023-07-31T02:20:52;13.30;99.90
16823;DHT22;8528;49.976;11.858;2023-07-31T02:23:19;13.30;99.90
16823;DHT22;8528;49.976;11.858;2023-07-31T02:25:46;13.20;99.90
16823;DHT22;8528;49.976;11.858;2023-07-31T02:28:13;13.30;99.90
16823;DHT22;8528;49.976;11.858;2023-07-31T02:30:44;13.20;99.90
16823;DHT22;8528;49.976;11.858;2023-07-31T02:33:14;13.20;99.90
16823;DHT22;8528;49.976;11.858;2023-07-31T02:35:41;13.20;99.90
16823;DHT22;8528;49.976;11.858;2023-07-31T02:38:08;13.30;99.90
16823;DHT22;8528;49.976;11.858;2023-07-31T02:40:36;13.20;99.90
16823;DHT22;8528;49.976;11.858;2023-07-31T02:43:04;13.20;99.90
16823;DHT22;8528;49.976;11.858;2023-07-31T02:45:31;13.10;99.90
16823;DHT22;8528;49.976;11.858;2023-07-31T02:47:58;13.20;99.90
16823;DHT22;8528;49.976;11.858;2023-07-31T02:50:25;13.10;99.90
16823;DHT22;8528;49.976;11.858;2023-07-31T02:52:52;13.10;99.90
16823;DHT22;8528;49.976;11.858;2023-07-31T02:55:19;13.10;99.90
16823;DHT22;8528;49.976;11.858;2023-07-31T02:57:46;13.10;99.90
16823;DHT22;8528;49.976;11.858;2023-07-31T03:00:14;13.00;99.90
16823;DHT22;8528;49.976;11.858;2023-07-31T03:02:41;13.00;99.90
16823;DHT22;8528;49.976;11.858;2023-07-31T03:05:08;13.00;99.90
16823;DHT22;8528;49.976;11.858;2023-07-31T03:07:35;13.00;99.90
16823;DHT22;8528;49.976;11.858;2023-07-31T03:10:04;13.10;99.90
16823;DHT22;8528;49.976;11.858;2023-07-31T03:12:31;13.10;99.90
16823;DHT22;8528;49.976;11.858;2023-07-31T03:14:58;13.10;99.90
16823;DHT22;8528;49.976;11.858;2023-07-31T03:17:26;13.20;99.90
16823;DHT22;8528;49.976;11.858;2023-07-31T03:19:54;13.20;99.90
16823;DHT22;8528;49.976;11.858;2023-07-31T03:22:22;13.30;99.90
16823;DHT22;8528;49.976;11.858;2023-07-31T03:24:49;13.20;99.90
16823;DHT22;8528;49.976;11.858;2023-07-31T03:27:16;13.30;99.90
16823;DHT22;8528;49.976;11.858;2023-07-31T03:29:43;13.30;99.90
16823;DHT22;8528;49.976;11.858;2023-07-31T03:32:10;13.30;99.90
16823;DHT22;8528;49.976;11.858;2023-07-31T03:34:38;13.30;99.90
16823;DHT22;8528;49.976;11.858;2023-07-31T03:37:06;13.30;99.90
16823;DHT22;8528;49.976;11.858;2023-07-31T03:39:32;13.30;99.90
16823;DHT22;8528;49.976;11.858;2023-07-31T03:42:00;13.30;99.90
16823;DHT22;8528;49.976;11.858;2023-07-31T03:44:27;13.40;99.90
16823;DHT22;8528;49.976;11.858;2023-07-31T03:46:54;13.40;99.90
16823;DHT22;8528;49.976;11.858;2023-07-31T03:49:21;13.50;99.90
16823;DHT22;8528;49.976;11.858;2023-07-31T03:51:49;13.50;99.90
16823;DHT22;8528;49.976;11.858;2023-07-31T03:54:17;13.50;99.90
16823;DHT22;8528;49.976;11.858;2023-07-31T03:56:44;13.50;99.90
16823;DHT22;8528;49.976;11.858;2023-07-31T03:59:11;13.50;99.90
16823;DHT22;8528;49.976;11.858;2023-07-31T04:01:38;13.50;99.90
16823;DHT22;8528;49.976;11.858;2023-07-31T04:04:05;13.50;99.90
16823;DHT22;8528;49.976;11.858;2023-07-31T04:06:32;13.50;99.90
16823;DHT22;8528;49.976;11.858;2023-07-31T04:08:59;13.60;99.90
16823;DHT22;8528;49.976;11.858;2023-07-31T04:11:26;13.60;99.90
16823;DHT22;8528;49.976;11.858;2023-07-31T04:13:53;13.60;99.90
16823;DHT22;8528;49.976;11.858;2023-07-31T04:16:21;13.60;99.90
16823;DHT22;8528;49.976;11.858;2023-07-31T04:18:48;13.60;99.90
16823;DHT22;8528;49.976;11.858;2023-07-31T04:21:14;13.70;99.90
16823;DHT22;8528;49.976;11.858;2023-07-31T04:23:41;13.70;99.90
16823;DHT22;8528;49.976;11.858;2023-07-31T04:26:08;13.70;99.90
16823;DHT22;8528;49.976;11.858;2023-07-31T04:28:35;13.80;99.90
16823;DHT22;8528;49.976;11.858;2023-07-31T04:31:04;13.80;99.90
16823;DHT22;8528;49.976;11.858;2023-07-31T04:33:31;13.80;99.90
16823;DHT22;8528;49.976;11.858;2023-07-31T04:35:59;13.80;99.90
16823;DHT22;8528;49.976;11.858;2023-07-31T04:38:26;13.80;99.90
16823;DHT22;8528;49.976;11.858;2023-07-31T04:40:53;13.80;99.90
16823;DHT22;8528;49.976;11.858;2023-07-31T04:43:20;13.80;99.90
16823;DHT22;8528;49.976;11.858;2023-07-31T04:45:47;13.90;99.90
16823;DHT22;8528;49.976;11.858;2023-07-31T04:48:17;13.90;99.90
16823;DHT22;8528;49.976;11.858;2023-07-31T04:50:45;13.90;99.90
16823;DHT22;8528;49.976;11.858;2023-07-31T04:53:12;14.00;99.90
16823;DHT22;8528;49.976;11.858;2023-07-31T04:55:39;14.00;99.90
16823;DHT22;8528;49.976;11.858;2023-07-31T04:58:06;14.00;99.90
16823;DHT22;8528;49.976;11.858;2023-07-31T05:00:33;14.00;99.90
16823;DHT22;8528;49.976;11.858;2023-07-31T05:03:00;14.00;99.90
16823;DHT22;8528;49.976;11.858;2023-07-31T05:05:27;14.00;99.90
16823;DHT22;8528;49.976;11.858;2023-07-31T05:07:54;14.00;99.90
16823;DHT22;8528;49.976;11.858;2023-07-31T05:10:21;14.00;99.90
16823;DHT22;8528;49.976;11.858;2023-07-31T05:12:48;14.00;99.90
16823;DHT22;8528;49.976;11.858;2023-07-31T05:15:16;14.00;99.90
16823;DHT22;8528;49.976;11.858;2023-07-31T05:17:43;14.00;99.90
16823;DHT22;8528;49.976;11.858;2023-07-31T05:20:10;14.00;99.90
16823;DHT22;8528;49.976;11.858;2023-07-31T05:22:38;14.00;99.90
16823;DHT22;8528;49.976;11.858;2023-07-31T05:25:07;14.00;99.90
16823;DHT22;8528;49.976;11.858;2023-07-31T05:27:34;14.00;99.90
16823;DHT22;8528;49.976;11.858;2023-07-31T05:30:02;14.00;99.90
16823;DHT22;8528;49.976;11.858;2023-07-31T05:32:32;14.10;99.90
16823;DHT22;8528;49.976;11.858;2023-07-31T05:34:59;14.00;99.90
16823;DHT22;8528;49.976;11.858;2023-07-31T05:37:26;14.10;99.90
16823;DHT22;8528;49.976;11.858;2023-07-31T05:39:53;14.10;99.90
16823;DHT22;8528;49.976;11.858;2023-07-31T05:42:22;14.10;99.90
16823;DHT22;8528;49.976;11.858;2023-07-31T05:44:52;14.10;99.90
16823;DHT22;8528;49.976;11.858;2023-07-31T05:47:20;14.20;99.90
16823;DHT22;8528;49.976;11.858;2023-07-31T05:49:46;14.30;99.90
16823;DHT22;8528;49.976;11.858;2023-07-31T05:52:15;14.30;99.90
16823;DHT22;8528;49.976;11.858;2023-07-31T05:54:42;14.40;99.90
16823;DHT22;8528;49.976;11.858;2023-07-31T05:57:09;14.40;99.90
16823;DHT22;8528;49.976;11.858;2023-07-31T05:59:36;14.40;99.90
16823;DHT22;8528;49.976;11.858;2023-07-31T06:02:06;14.40;99.90
16823;DHT22;8528;49.976;11.858;2023-07-31T06:04:33;14.40;99.90
16823;DHT22;8528;49.976;11.858;2023-07-31T06:07:00;14.30;99.90
16823;DHT22;8528;49.976;11.858;2023-07-31T06:09:27;14.30;99.90
16823;DHT22;8528;49.976;11.858;2023-07-31T06:11:54;14.30;99.90
16823;DHT22;8528;49.976;11.858;2023-07-31T06:14:21;14.30;99.90
16823;DHT22;8528;49.976;11.858;2023-07-31T06:16:48;14.30;99.90
16823;DHT22;8528;49.976;11.858;2023-07-31T06:19:16;14.40;99.90
16823;DHT22;8528;49.976;11.858;2023-07-31T06:21:43;14.40;99.90
16823;DHT22;8528;49.976;11.858;2023-07-31T06:24:11;14.60;99.90
16823;DHT22;8528;49.976;11.858;2023-07-31T06:26:40;14.60;99.90
16823;DHT22;8528;49.976;11.858;2023-07-31T06:29:11;14.80;99.90
16823;DHT22;8528;49.976;11.858;2023-07-31T06:31:38;14.90;99.90
16823;DHT22;8528;49.976;11.858;2023-07-31T06:34:05;15.00;99.90
16823;DHT22;8528;49.976;11.858;2023-07-31T06:36:32;15.10;99.90
16823;DHT22;8528;49.976;11.858;2023-07-31T06:38:59;15.10;99.90
16823;DHT22;8528;49.976;11.858;2023-07-31T06:41:26;15.10;99.90
16823;DHT22;8528;49.976;11.858;2023-07-31T06:43:53;15.20;99.90
16823;DHT22;8528;49.976;11.858;2023-07-31T06:46:20;15.20;99.90
16823;DHT22;8528;49.976;11.858;2023-07-31T06:48:47;15.30;99.90
16823;DHT22;8528;49.976;11.858;2023-07-31T06:51:14;15.40;99.90
16823;DHT22;8528;49.976;11.858;2023-07-31T06:53:41;15.50;99.90
16823;DHT22;8528;49.976;11.858;2023-07-31T06:56:12;15.60;99.90
16823;DHT22;8528;49.976;11.858;2023-07-31T06:58:39;15.90;99.90
16823;DHT22;8528;49.976;11.858;2023-07-31T07:01:06;16.20;99.90
16823;DHT22;8528;49.976;11.858;2023-07-31T07:03:33;16.30;99.90
16823;DHT22;8528;49.976;11.858;2023-07-31T07:06:00;16.30;99.90
16823;DHT22;8528;49.976;11.858;2023-07-31T07:08:27;16.30;99.90
16823;DHT22;8528;49.976;11.858;2023-07-31T07:10:54;16.30;99.90
16823;DHT22;8528;49.976;11.858;2023-07-31T07:13:25;16.30;99.90
16823;DHT22;8528;49.976;11.858;2023-07-31T07:15:53;16.20;99.90
16823;DHT22;8528;49.976;11.858;2023-07-31T07:18:20;16.10;99.90
16823;DHT22;8528;49.976;11.858;2023-07-31T07:20:52;16.00;99.90
16823;DHT22;8528;49.976;11.858;2023-07-31T07:23:20;15.90;99.90
16823;DHT22;8528;49.976;11.858;2023-07-31T07:25:48;15.90;99.90
16823;DHT22;8528;49.976;11.858;2023-07-31T07:28:16;15.90;99.90
16823;DHT22;8528;49.976;11.858;2023-07-31T07:30:43;16.00;99.90
16823;DHT22;8528;49.976;11.858;2023-07-31T07:33:10;16.10;99.90
16823;DHT22;8528;49.976;11.858;2023-07-31T07:35:38;16.30;99.90
16823;DHT22;8528;49.976;11.858;2023-07-31T07:38:08;16.40;99.90
16823;DHT22;8528;49.976;11.858;2023-07-31T07:40:39;16.50;99.90
16823;DHT22;8528;49.976;11.858;2023-07-31T07:43:07;16.70;99.90
16823;DHT22;8528;49.976;11.858;2023-07-31T07:45:33;16.70;99.90
16823;DHT22;8528;49.976;11.858;2023-07-31T07:48:02;16.60;99.90
16823;DHT22;8528;49.976;11.858;2023-07-31T07:50:30;16.60;99.90
16823;DHT22;8528;49.976;11.858;2023-07-31T07:52:57;16.60;99.90
16823;DHT22;8528;49.976;11.858;2023-07-31T07:55:24;16.50;99.90
16823;DHT22;8528;49.976;11.858;2023-07-31T07:57:51;16.40;99.90
16823;DHT22;8528;49.976;11.858;2023-07-31T08:00:18;16.30;99.90
16823;DHT22;8528;49.976;11.858;2023-07-31T08:02:45;16.20;99.90
16823;DHT22;8528;49.976;11.858;2023-07-31T08:05:14;16.20;99.90
16823;DHT22;8528;49.976;11.858;2023-07-31T08:07:41;16.30;99.90
16823;DHT22;8528;49.976;11.858;2023-07-31T08:10:08;16.30;99.90
16823;DHT22;8528;49.976;11.858;2023-07-31T08:12:36;16.30;99.90
16823;DHT22;8528;49.976;11.858;2023-07-31T08:15:04;16.50;99.90
16823;DHT22;8528;49.976;11.858;2023-07-31T08:17:31;16.80;99.90
16823;DHT22;8528;49.976;11.858;2023-07-31T08:19:58;16.90;99.90
16823;DHT22;8528;49.976;11.858;2023-07-31T08:22:31;17.10;99.90
16823;DHT22;8528;49.976;11.858;2023-07-31T08:25:01;17.30;99.90
16823;DHT22;8528;49.976;11.858;2023-07-31T08:27:28;17.50;99.90
16823;DHT22;8528;49.976;11.858;2023-07-31T08:29:55;17.60;99.90
16823;DHT22;8528;49.976;11.858;2023-07-31T08:32:22;17.60;99.90
16823;DHT22;8528;49.976;11.858;2023-07-31T08:34:49;17.70;99.90
16823;DHT22;8528;49.976;11.858;2023-07-31T08:37:16;18.00;99.90
16823;DHT22;8528;49.976;11.858;2023-07-31T08:39:43;18.30;99.90
16823;DHT22;8528;49.976;11.858;2023-07-31T08:42:10;19.00;99.90
16823;DHT22;8528;49.976;11.858;2023-07-31T08:44:39;19.50;99.90
16823;DHT22;8528;49.976;11.858;2023-07-31T08:47:06;19.80;99.90
16823;DHT22;8528;49.976;11.858;2023-07-31T08:49:35;20.00;99.90
16823;DHT22;8528;49.976;11.858;2023-07-31T08:52:04;20.00;99.90
16823;DHT22;8528;49.976;11.858;2023-07-31T08:54:31;20.10;99.90
16823;DHT22;8528;49.976;11.858;2023-07-31T08:57:00;20.10;99.90
16823;DHT22;8528;49.976;11.858;2023-07-31T08:59:31;20.20;99.90
16823;DHT22;8528;49.976;11.858;2023-07-31T09:02:06;20.40;99.90
16823;DHT22;8528;49.976;11.858;2023-07-31T09:04:34;20.40;99.90
16823;DHT22;8528;49.976;11.858;2023-07-31T09:07:03;20.30;99.90
16823;DHT22;8528;49.976;11.858;2023-07-31T09:09:33;20.20;99.90
16823;DHT22;8528;49.976;11.858;2023-07-31T09:12:00;20.30;99.90
16823;DHT22;8528;49.976;11.858;2023-07-31T09:14:28;20.40;99.90
16823;DHT22;8528;49.976;11.858;2023-07-31T09:16:57;20.50;99.90
16823;DHT22;8528;49.976;11.858;2023-07-31T09:19:32;20.40;99.90
16823;DHT22;8528;49.976;11.858;2023-07-31T09:22:01;20.50;99.90
16823;DHT22;8528;49.976;11.858;2023-07-31T09:24:31;20.30;99.90
16823;DHT22;8528;49.976;11.858;2023-07-31T09:26:59;20.30;99.90
16823;DHT22;8528;49.976;11.858;2023-07-31T09:29:28;20.50;99.90
16823;DHT22;8528;49.976;11.858;2023-07-31T09:32:00;20.50;99.90
16823;DHT22;8528;49.976;11.858;2023-07-31T09:34:37;20.40;99.90
16823;DHT22;8528;49.976;11.858;2023-07-31T09:37:08;20.30;99.90
16823;DHT22;8528;49.976;11.858;2023-07-31T09:39:46;20.30;99.90
16823;DHT22;8528;49.976;11.858;2023-07-31T09:42:24;20.60;99.90
16823;DHT22;8528;49.976;11.858;2023-07-31T09:44:51;20.80;99.90
16823;DHT22;8528;49.976;11.858;2023-07-31T09:47:23;21.00;99.90
16823;DHT22;8528;49.976;11.858;2023-07-31T09:49:52;21.20;99.90
16823;DHT22;8528;49.976;11.858;2023-07-31T09:52:19;21.50;99.90
16823;DHT22;8528;49.976;11.858;2023-07-31T09:54:46;22.00;99.90
16823;DHT22;8528;49.976;11.858;2023-07-31T09:57:14;22.30;99.90
16823;DHT22;8528;49.976;11.858;2023-07-31T09:59:45;22.60;99.90
16823;DHT22;8528;49.976;11.858;2023-07-31T10:02:22;22.20;99.90
16823;DHT22;8528;49.976;11.858;2023-07-31T10:04:50;21.90;99.90
16823;DHT22;8528;49.976;11.858;2023-07-31T10:07:18;21.60;99.90
16823;DHT22;8528;49.976;11.858;2023-07-31T10:09:47;21.60;99.90
16823;DHT22;8528;49.976;11.858;2023-07-31T10:12:15;21.50;99.90
16823;DHT22;8528;49.976;11.858;2023-07-31T10:14:44;21.10;99.90
16823;DHT22;8528;49.976;11.858;2023-07-31T10:17:12;20.60;99.90
16823;DHT22;8528;49.976;11.858;2023-07-31T10:19:40;20.20;99.90
16823;DHT22;8528;49.976;11.858;2023-07-31T10:22:08;19.90;99.90
16823;DHT22;8528;49.976;11.858;2023-07-31T10:24:39;19.70;99.90
16823;DHT22;8528;49.976;11.858;2023-07-31T10:27:14;19.50;99.90
16823;DHT22;8528;49.976;11.858;2023-07-31T10:29:44;19.50;99.90
16823;DHT22;8528;49.976;11.858;2023-07-31T10:32:14;19.20;99.90
16823;DHT22;8528;49.976;11.858;2023-07-31T10:34:42;19.10;99.90
16823;DHT22;8528;49.976;11.858;2023-07-31T10:37:36;18.90;99.90
16823;DHT22;8528;49.976;11.858;2023-07-31T10:40:16;19.00;99.90
16823;DHT22;8528;49.976;11.858;2023-07-31T10:42:59;19.00;99.90
16823;DHT22;8528;49.976;11.858;2023-07-31T10:45:48;19.10;99.90
16823;DHT22;8528;49.976;11.858;2023-07-31T10:48:16;19.10;99.90
16823;DHT22;8528;49.976;11.858;2023-07-31T10:50:52;19.00;99.90
16823;DHT22;8528;49.976;11.858;2023-07-31T10:53:26;18.80;99.90
16823;DHT22;8528;49.976;11.858;2023-07-31T10:56:02;18.70;99.90
16823;DHT22;8528;49.976;11.858;2023-07-31T10:58:31;18.60;99.90
16823;DHT22;8528;49.976;11.858;2023-07-31T11:01:03;18.60;99.90
16823;DHT22;8528;49.976;11.858;2023-07-31T11:03:48;18.80;99.90
16823;DHT22;8528;49.976;11.858;2023-07-31T11:06:16;19.30;99.90
16823;DHT22;8528;49.976;11.858;2023-07-31T11:08:49;19.80;99.90
16823;DHT22;8528;49.976;11.858;2023-07-31T11:11:18;20.50;99.90
16823;DHT22;8528;49.976;11.858;2023-07-31T11:13:46;21.40;99.90
16823;DHT22;8528;49.976;11.858;2023-07-31T11:16:19;22.40;99.90
16823;DHT22;8528;49.976;11.858;2023-07-31T11:18:47;23.40;99.90
16823;DHT22;8528;49.976;11.858;2023-07-31T11:21:25;23.50;99.90
16823;DHT22;8528;49.976;11.858;2023-07-31T11:23:57;23.30;99.90
16823;DHT22;8528;49.976;11.858;2023-07-31T11:26:27;22.70;99.90
16823;DHT22;8528;49.976;11.858;2023-07-31T11:28:54;22.20;99.90
16823;DHT22;8528;49.976;11.858;2023-07-31T11:31:21;21.80;99.90
16823;DHT22;8528;49.976;11.858;2023-07-31T11:33:48;21.30;99.90
16823;DHT22;8528;49.976;11.858;2023-07-31T11:36:20;21.60;99.90
16823;DHT22;8528;49.976;11.858;2023-07-31T11:38:47;22.10;99.90
16823;DHT22;8528;49.976;11.858;2023-07-31T11:41:15;22.20;99.90
16823;DHT22;8528;49.976;11.858;2023-07-31T11:43:46;22.20;99.90
16823;DHT22;8528;49.976;11.858;2023-07-31T11:46:14;22.50;99.90
16823;DHT22;8528;49.976;11.858;2023-07-31T11:48:42;22.90;99.90
16823;DHT22;8528;49.976;11.858;2023-07-31T11:51:11;22.70;99.90
16823;DHT22;8528;49.976;11.858;2023-07-31T11:53:47;22.30;99.90
16823;DHT22;8528;49.976;11.858;2023-07-31T11:56:19;21.70;99.90
16823;DHT22;8528;49.976;11.858;2023-07-31T11:58:58;21.20;99.90
16823;DHT22;8528;49.976;11.858;2023-07-31T12:01:26;20.80;99.90
16823;DHT22;8528;49.976;11.858;2023-07-31T12:03:55;20.40;99.90
16823;DHT22;8528;49.976;11.858;2023-07-31T12:06:33;20.20;99.90
16823;DHT22;8528;49.976;11.858;2023-07-31T12:09:04;19.90;99.90
16823;DHT22;8528;49.976;11.858;2023-07-31T12:11:45;19.80;99.90
16823;DHT22;8528;49.976;11.858;2023-07-31T12:14:24;19.70;99.90
16823;DHT22;8528;49.976;11.858;2023-07-31T12:16:56;19.90;99.90
16823;DHT22;8528;49.976;11.858;2023-07-31T12:19:25;20.00;99.90
16823;DHT22;8528;49.976;11.858;2023-07-31T12:21:58;20.00;99.90
16823;DHT22;8528;49.976;11.858;2023-07-31T12:24:27;20.10;99.90
16823;DHT22;8528;49.976;11.858;2023-07-31T12:26:54;20.10;99.90
16823;DHT22;8528;49.976;11.858;2023-07-31T12:29:22;20.40;99.90
16823;DHT22;8528;49.976;11.858;2023-07-31T12:31:52;20.80;99.90
16823;DHT22;8528;49.976;11.858;2023-07-31T12:34:20;21.10;99.90
16823;DHT22;8528;49.976;11.858;2023-07-31T12:36:48;21.40;99.90
16823;DHT22;8528;49.976;11.858;2023-07-31T12:39:15;21.80;99.90
16823;DHT22;8528;49.976;11.858;2023-07-31T12:41:42;22.30;99.90
16823;DHT22;8528;49.976;11.858;2023-07-31T12:44:09;22.80;99.90
16823;DHT22;8528;49.976;11.858;2023-07-31T12:46:37;23.10;99.90
16823;DHT22;8528;49.976;11.858;2023-07-31T12:49:05;23.70;99.90
16823;DHT22;8528;49.976;11.858;2023-07-31T12:51:32;25.00;98.80
16823;DHT22;8528;49.976;11.858;2023-07-31T12:53:59;26.10;95.40
16823;DHT22;8528;49.976;11.858;2023-07-31T12:56:26;26.10;92.80
16823;DHT22;8528;49.976;11.858;2023-07-31T12:58:53;25.80;92.50
16823;DHT22;8528;49.976;11.858;2023-07-31T13:01:20;25.30;92.40
16823;DHT22;8528;49.976;11.858;2023-07-31T13:03:48;24.90;92.00
16823;DHT22;8528;49.976;11.858;2023-07-31T13:06:15;24.20;94.20
16823;DHT22;8528;49.976;11.858;2023-07-31T13:08:42;24.30;93.40
16823;DHT22;8528;49.976;11.858;2023-07-31T13:11:10;24.70;92.80
16823;DHT22;8528;49.976;11.858;2023-07-31T13:13:57;25.50;92.20
16823;DHT22;8528;49.976;11.858;2023-07-31T13:16:26;26.20;88.30
16823;DHT22;8528;49.976;11.858;2023-07-31T13:18:54;25.30;91.30
16823;DHT22;8528;49.976;11.858;2023-07-31T13:21:20;24.40;93.10
16823;DHT22;8528;49.976;11.858;2023-07-31T13:23:49;23.80;94.70
16823;DHT22;8528;49.976;11.858;2023-07-31T13:26:16;23.10;98.30
16823;DHT22;8528;49.976;11.858;2023-07-31T13:28:42;22.60;98.00
16823;DHT22;8528;49.976;11.858;2023-07-31T13:31:09;22.20;98.50
16823;DHT22;8528;49.976;11.858;2023-07-31T13:33:38;21.80;99.60
16823;DHT22;8528;49.976;11.858;2023-07-31T13:36:09;21.60;99.90
16823;DHT22;8528;49.976;11.858;2023-07-31T13:38:36;21.60;99.90
16823;DHT22;8528;49.976;11.858;2023-07-31T13:41:03;21.60;99.90
16823;DHT22;8528;49.976;11.858;2023-07-31T13:43:32;21.80;99.90
16823;DHT22;8528;49.976;11.858;2023-07-31T13:45:59;22.20;99.90
16823;DHT22;8528;49.976;11.858;2023-07-31T13:48:35;22.80;99.60
16823;DHT22;8528;49.976;11.858;2023-07-31T13:51:03;23.20;97.70
16823;DHT22;8528;49.976;11.858;2023-07-31T13:53:30;23.80;97.70
16823;DHT22;8528;49.976;11.858;2023-07-31T13:55:58;24.30;95.80
16823;DHT22;8528;49.976;11.858;2023-07-31T13:58:24;24.70;94.90
16823;DHT22;8528;49.976;11.858;2023-07-31T14:00:51;24.80;94.10
16823;DHT22;8528;49.976;11.858;2023-07-31T14:03:18;24.40;93.40
16823;DHT22;8528;49.976;11.858;2023-07-31T14:05:46;24.00;94.30
16823;DHT22;8528;49.976;11.858;2023-07-31T14:08:13;23.70;94.10
16823;DHT22;8528;49.976;11.858;2023-07-31T14:10:40;23.40;93.80
16823;DHT22;8528;49.976;11.858;2023-07-31T14:13:09;23.10;94.90
16823;DHT22;8528;49.976;11.858;2023-07-31T14:15:37;23.30;93.90
16823;DHT22;8528;49.976;11.858;2023-07-31T14:18:04;23.20;94.30
16823;DHT22;8528;49.976;11.858;2023-07-31T14:20:31;23.00;95.30
16823;DHT22;8528;49.976;11.858;2023-07-31T14:22:59;23.00;95.60
16823;DHT22;8528;49.976;11.858;2023-07-31T14:25:26;23.20;95.30
16823;DHT22;8528;49.976;11.858;2023-07-31T14:27:53;23.40;94.60
16823;DHT22;8528;49.976;11.858;2023-07-31T14:30:20;23.40;96.00
16823;DHT22;8528;49.976;11.858;2023-07-31T14:32:47;23.50;94.60
16823;DHT22;8528;49.976;11.858;2023-07-31T14:35:14;23.30;95.30
16823;DHT22;8528;49.976;11.858;2023-07-31T14:37:43;23.00;94.70
16823;DHT22;8528;49.976;11.858;2023-07-31T14:40:12;22.80;96.50
16823;DHT22;8528;49.976;11.858;2023-07-31T14:42:40;22.70;96.00
16823;DHT22;8528;49.976;11.858;2023-07-31T14:45:07;22.60;96.00
16823;DHT22;8528;49.976;11.858;2023-07-31T14:47:34;22.60;95.90
16823;DHT22;8528;49.976;11.858;2023-07-31T14:50:03;22.50;95.50
16823;DHT22;8528;49.976;11.858;2023-07-31T14:52:31;22.50;95.60
16823;DHT22;8528;49.976;11.858;2023-07-31T14:54:58;22.40;96.10
16823;DHT22;8528;49.976;11.858;2023-07-31T14:57:25;22.30;95.50
16823;DHT22;8528;49.976;11.858;2023-07-31T14:59:53;22.20;95.70
16823;DHT22;8528;49.976;11.858;2023-07-31T15:02:21;21.90;95.50
16823;DHT22;8528;49.976;11.858;2023-07-31T15:04:50;21.70;96.00
16823;DHT22;8528;49.976;11.858;2023-07-31T15:07:17;21.60;96.90
16823;DHT22;8528;49.976;11.858;2023-07-31T15:09:44;21.50;97.00
16823;DHT22;8528;49.976;11.858;2023-07-31T15:12:11;21.20;97.50
16823;DHT22;8528;49.976;11.858;2023-07-31T15:14:38;21.10;98.00
16823;DHT22;8528;49.976;11.858;2023-07-31T15:17:06;21.10;97.90
16823;DHT22;8528;49.976;11.858;2023-07-31T15:19:33;21.20;98.00
16823;DHT22;8528;49.976;11.858;2023-07-31T15:22:02;21.30;98.30
16823;DHT22;8528;49.976;11.858;2023-07-31T15:24:29;21.30;97.20
16823;DHT22;8528;49.976;11.858;2023-07-31T15:26:58;21.10;97.90
16823;DHT22;8528;49.976;11.858;2023-07-31T15:29:25;21.00;98.90
16823;DHT22;8528;49.976;11.858;2023-07-31T15:31:52;21.00;98.10
16823;DHT22;8528;49.976;11.858;2023-07-31T15:34:20;21.00;98.30
16823;DHT22;8528;49.976;11.858;2023-07-31T15:36:50;21.00;98.40
16823;DHT22;8528;49.976;11.858;2023-07-31T15:39:16;20.90;98.90